sensor_id;sensor_type;location;lat;lon;timestamp;pressure;altitude;pressure_sealevel;temperature;humidity
70323;BME280;57735;56.264;43.898;2023-05-08T00:02:28;101966.81;;;0.47;66.67
70323;BME280;57735;56.264;43.898;2023-05-08T00:05:04;101965.84;;;0.49;66.79
70323;BME280;57735;56.264;43.898;2023-05-08T00:07:36;101965.00;;;0.49;67.00
70323;BME280;57735;56.264;43.898;2023-05-08T00:10:08;101965.84;;;0.49;67.14
70323;BME280;57735;56.264;43.898;2023-05-08T00:12:39;101976.34;;;0.49;67.15
70323;BME280;57735;56.264;43.898;2023-05-08T00:15:10;101966.81;;;0.47;67.85
70323;BME280;57735;56.264;43.898;2023-05-08T00:17:41;101970.31;;;0.46;67.56
70323;BME280;57735;56.264;43.898;2023-05-08T00:20:12;101963.47;;;0.42;67.45
70323;BME280;57735;56.264;43.898;2023-05-08T00:22:42;101973.03;;;0.43;67.38
70323;BME280;57735;56.264;43.898;2023-05-08T00:25:13;101974.91;;;0.39;67.79
70323;BME280;57735;56.264;43.898;2023-05-08T00:27:47;101965.41;;;0.35;68.21
70323;BME280;57735;56.264;43.898;2023-05-08T00:30:18;101976.75;;;0.35;68.19
70323;BME280;57735;56.264;43.898;2023-05-08T00:32:48;101985.50;;;0.36;68.62
70323;BME280;57735;56.264;43.898;2023-05-08T00:35:21;101977.66;;;0.34;68.21
70323;BME280;57735;56.264;43.898;2023-05-08T00:37:52;101983.78;;;0.35;68.48
70323;BME280;57735;56.264;43.898;2023-05-08T00:40:27;101975.13;;;0.33;68.51
70323;BME280;57735;56.264;43.898;2023-05-08T00:42:58;101967.25;;;0.33;68.67
70323;BME280;57735;56.264;43.898;2023-05-08T00:45:34;101983.03;;;0.31;68.58
70323;BME280;57735;56.264;43.898;2023-05-08T00:48:06;101981.31;;;0.30;68.27
70323;BME280;57735;56.264;43.898;2023-05-08T00:50:37;101989.19;;;0.30;68.32
70323;BME280;57735;56.264;43.898;2023-05-08T00:53:10;101983.09;;;0.30;68.53
70323;BME280;57735;56.264;43.898;2023-05-08T00:55:42;101983.94;;;0.30;68.50
70323;BME280;57735;56.264;43.898;2023-05-08T00:58:14;101982.22;;;0.29;68.74
70323;BME280;57735;56.264;43.898;2023-05-08T01:00:45;101993.63;;;0.28;68.44
70323;BME280;57735;56.264;43.898;2023-05-08T01:03:17;101986.63;;;0.29;68.50
70323;BME280;57735;56.264;43.898;2023-05-08T01:05:50;101991.03;;;0.27;68.63
70323;BME280;57735;56.264;43.898;2023-05-08T01:08:21;101991.84;;;0.29;68.13
70323;BME280;57735;56.264;43.898;2023-05-08T01:16:14;102005.63;;;0.35;67.67
70323;BME280;57735;56.264;43.898;2023-05-08T01:19:40;102006.34;;;0.41;67.16
70323;BME280;57735;56.264;43.898;2023-05-08T01:22:37;102008.78;;;0.47;66.88
70323;BME280;57735;56.264;43.898;2023-05-08T01:34:31;102028.69;;;0.52;66.28
70323;BME280;57735;56.264;43.898;2023-05-08T01:37:05;102025.19;;;0.52;66.68
70323;BME280;57735;56.264;43.898;2023-05-08T01:42:27;102024.28;;;0.53;66.44
70323;BME280;57735;56.264;43.898;2023-05-08T01:45:10;102029.44;;;0.56;66.47
70323;BME280;57735;56.264;43.898;2023-05-08T01:47:43;102028.53;;;0.57;66.32
70323;BME280;57735;56.264;43.898;2023-05-08T01:50:22;102035.50;;;0.58;66.38
70323;BME280;57735;56.264;43.898;2023-05-08T01:53:04;102044.25;;;0.58;66.20
70323;BME280;57735;56.264;43.898;2023-05-08T01:55:38;102039.84;;;0.59;66.26
70323;BME280;57735;56.264;43.898;2023-05-08T01:58:10;102038.94;;;0.60;66.17
70323;BME280;57735;56.264;43.898;2023-05-08T02:00:43;102036.31;;;0.60;66.52
70323;BME280;57735;56.264;43.898;2023-05-08T02:03:19;102044.09;;;0.63;66.17
70323;BME280;57735;56.264;43.898;2023-05-08T02:05:54;102044.06;;;0.64;66.02
70323;BME280;57735;56.264;43.898;2023-05-08T02:08:28;102050.03;;;0.68;66.07
70323;BME280;57735;56.264;43.898;2023-05-08T02:11:01;102047.31;;;0.71;65.73
70323;BME280;57735;56.264;43.898;2023-05-08T02:13:34;102056.81;;;0.75;65.54
70323;BME280;57735;56.264;43.898;2023-05-08T02:16:08;102064.59;;;0.78;65.71
70323;BME280;57735;56.264;43.898;2023-05-08T02:18:51;102061.88;;;0.81;65.55
70323;BME280;57735;56.264;43.898;2023-05-08T02:21:26;102066.91;;;0.87;65.29
70323;BME280;57735;56.264;43.898;2023-05-08T02:23:59;102067.66;;;0.91;64.73
70323;BME280;57735;56.264;43.898;2023-05-08T02:26:31;102064.91;;;0.95;64.59
70323;BME280;57735;56.264;43.898;2023-05-08T02:29:04;102073.59;;;0.97;64.65
70323;BME280;57735;56.264;43.898;2023-05-08T02:31:36;102078.75;;;1.00;64.31
70323;BME280;57735;56.264;43.898;2023-05-08T02:34:09;102076.81;;;1.05;64.22
70323;BME280;57735;56.264;43.898;2023-05-08T02:36:41;102074.94;;;1.09;64.12
70323;BME280;57735;56.264;43.898;2023-05-08T02:39:17;102084.53;;;1.10;63.87
70323;BME280;57735;56.264;43.898;2023-05-08T02:41:49;102078.47;;;1.08;63.90
70323;BME280;57735;56.264;43.898;2023-05-08T02:44:19;102082.81;;;1.09;63.83
70323;BME280;57735;56.264;43.898;2023-05-08T02:47:10;102082.81;;;1.09;63.84
70323;BME280;57735;56.264;43.898;2023-05-08T02:50:01;102083.56;;;1.13;63.88
70323;BME280;57735;56.264;43.898;2023-05-08T02:52:55;102087.88;;;1.15;63.88
70323;BME280;57735;56.264;43.898;2023-05-08T02:55:55;102095.47;;;1.23;63.84
70323;BME280;57735;56.264;43.898;2023-05-08T02:58:45;102099.72;;;1.27;63.68
70323;BME280;57735;56.264;43.898;2023-05-08T03:01:46;102096.03;;;1.32;63.65
70323;BME280;57735;56.264;43.898;2023-05-08T03:04:23;102103.75;;;1.37;63.32
70323;BME280;57735;56.264;43.898;2023-05-08T03:06:57;102107.97;;;1.41;63.20
70323;BME280;57735;56.264;43.898;2023-05-08T03:09:38;102098.19;;;1.46;63.25
70323;BME280;57735;56.264;43.898;2023-05-08T03:12:19;102105.91;;;1.51;63.07
70323;BME280;57735;56.264;43.898;2023-05-08T03:15:02;102116.16;;;1.58;62.94
70323;BME280;57735;56.264;43.898;2023-05-08T03:17:36;102108.09;;;1.63;62.69
70323;BME280;57735;56.264;43.898;2023-05-08T03:20:11;102115.84;;;1.67;62.67
70323;BME280;57735;56.264;43.898;2023-05-08T03:22:45;102115.66;;;1.72;62.60
70323;BME280;57735;56.264;43.898;2023-05-08T03:25:18;102108.47;;;1.77;62.66
70323;BME280;57735;56.264;43.898;2023-05-08T03:27:50;102108.25;;;1.83;62.45
70323;BME280;57735;56.264;43.898;2023-05-08T03:30:26;102114.25;;;1.87;62.64
70323;BME280;57735;56.264;43.898;2023-05-08T03:32:57;102119.28;;;1.93;62.66
70323;BME280;57735;56.264;43.898;2023-05-08T03:35:30;102119.06;;;1.99;62.57
70323;BME280;57735;56.264;43.898;2023-05-08T03:38:02;102116.25;;;2.03;62.80
70323;BME280;57735;56.264;43.898;2023-05-08T03:40:34;102115.19;;;2.09;62.71
70323;BME280;57735;56.264;43.898;2023-05-08T03:43:09;102122.84;;;2.15;62.39
70323;BME280;57735;56.264;43.898;2023-05-08T03:45:43;102120.66;;;2.26;62.49
70323;BME280;57735;56.264;43.898;2023-05-08T03:48:17;102123.88;;;2.34;62.47
70323;BME280;57735;56.264;43.898;2023-05-08T03:50:49;102128.78;;;2.43;62.45
70323;BME280;57735;56.264;43.898;2023-05-08T03:53:22;102121.44;;;2.52;61.89
70323;BME280;57735;56.264;43.898;2023-05-08T03:55:53;102126.34;;;2.61;61.84
70323;BME280;57735;56.264;43.898;2023-05-08T04:01:34;102135.00;;;2.86;61.53
70323;BME280;57735;56.264;43.898;2023-05-08T04:04:26;102135.38;;;2.99;60.84
70323;BME280;57735;56.264;43.898;2023-05-08T04:07:26;102135.72;;;3.11;60.47
70323;BME280;57735;56.264;43.898;2023-05-08T04:10:05;102143.91;;;3.26;60.20
70323;BME280;57735;56.264;43.898;2023-05-08T04:12:56;102146.03;;;3.38;59.99
70323;BME280;57735;56.264;43.898;2023-05-08T04:15:33;102143.66;;;3.52;60.11
70323;BME280;57735;56.264;43.898;2023-05-08T04:18:11;102139.53;;;3.67;59.73
70323;BME280;57735;56.264;43.898;2023-05-08T04:20:45;102140.72;;;3.80;59.38
70323;BME280;57735;56.264;43.898;2023-05-08T04:23:19;102140.09;;;3.94;59.15
70323;BME280;57735;56.264;43.898;2023-05-08T04:25:52;102137.69;;;4.08;58.89
70323;BME280;57735;56.264;43.898;2023-05-08T04:28:23;102140.50;;;4.24;58.54
70323;BME280;57735;56.264;43.898;2023-05-08T04:30:55;102140.66;;;4.39;58.21
70323;BME280;57735;56.264;43.898;2023-05-08T04:33:27;102149.56;;;4.55;57.59
70323;BME280;57735;56.264;43.898;2023-05-08T04:36:00;102147.38;;;4.65;57.34
70323;BME280;57735;56.264;43.898;2023-05-08T04:38:35;102148.50;;;4.78;57.33
70323;BME280;57735;56.264;43.898;2023-05-08T04:41:07;102143.41;;;4.93;57.10
70323;BME280;57735;56.264;43.898;2023-05-08T04:43:38;102138.38;;;5.05;56.41
70323;BME280;57735;56.264;43.898;2023-05-08T04:46:09;102144.00;;;5.16;55.60
70323;BME280;57735;56.264;43.898;2023-05-08T04:48:39;102144.31;;;5.28;55.00
70323;BME280;57735;56.264;43.898;2023-05-08T04:51:10;102139.97;;;5.44;54.87
70323;BME280;57735;56.264;43.898;2023-05-08T04:53:41;102141.22;;;5.54;54.49
70323;BME280;57735;56.264;43.898;2023-05-08T04:56:12;102137.03;;;5.67;53.57
70323;BME280;57735;56.264;43.898;2023-05-08T04:58:42;102135.44;;;5.80;53.18
70323;BME280;57735;56.264;43.898;2023-05-08T05:01:13;102135.84;;;5.90;51.11
70323;BME280;57735;56.264;43.898;2023-05-08T05:03:46;102130.88;;;6.01;50.40
70323;BME280;57735;56.264;43.898;2023-05-08T05:06:16;102135.72;;;6.09;49.41
70323;BME280;57735;56.264;43.898;2023-05-08T05:08:47;102130.75;;;6.20;48.28
70323;BME280;57735;56.264;43.898;2023-05-08T05:11:20;102138.78;;;6.34;47.34
70323;BME280;57735;56.264;43.898;2023-05-08T05:13:52;102128.63;;;6.42;45.72
70323;BME280;57735;56.264;43.898;2023-05-08T05:16:22;102131.56;;;6.53;46.18
70323;BME280;57735;56.264;43.898;2023-05-08T05:18:53;102135.63;;;6.59;46.49
70323;BME280;57735;56.264;43.898;2023-05-08T05:21:24;102137.09;;;6.64;47.31
70323;BME280;57735;56.264;43.898;2023-05-08T05:23:55;102144.53;;;6.74;47.33
70323;BME280;57735;56.264;43.898;2023-05-08T05:26:26;102134.44;;;6.80;46.87
70323;BME280;57735;56.264;43.898;2023-05-08T05:28:59;102135.53;;;6.92;46.94
70323;BME280;57735;56.264;43.898;2023-05-08T05:31:30;102137.59;;;7.03;46.52
70323;BME280;57735;56.264;43.898;2023-05-08T05:34:06;102139.63;;;7.13;44.63
70323;BME280;57735;56.264;43.898;2023-05-08T05:36:37;102127.81;;;7.19;43.38
70323;BME280;57735;56.264;43.898;2023-05-08T05:39:08;102136.09;;;7.28;43.06
70323;BME280;57735;56.264;43.898;2023-05-08T05:41:39;102139.03;;;7.38;42.68
70323;BME280;57735;56.264;43.898;2023-05-08T05:44:13;102134.41;;;7.42;42.08
70323;BME280;57735;56.264;43.898;2023-05-08T05:46:44;102134.91;;;7.48;43.03
70323;BME280;57735;56.264;43.898;2023-05-08T05:49:14;102133.50;;;7.57;42.36
70323;BME280;57735;56.264;43.898;2023-05-08T05:51:45;102136.84;;;7.60;41.72
70323;BME280;57735;56.264;43.898;2023-05-08T05:54:16;102141.31;;;7.74;38.62
70323;BME280;57735;56.264;43.898;2023-05-08T05:56:47;102151.84;;;7.76;38.28
70323;BME280;57735;56.264;43.898;2023-05-08T05:59:17;102143.44;;;7.83;38.36
70323;BME280;57735;56.264;43.898;2023-05-08T06:01:48;102144.22;;;7.99;38.79
70323;BME280;57735;56.264;43.898;2023-05-08T06:04:19;102150.66;;;8.24;39.22
70323;BME280;57735;56.264;43.898;2023-05-08T06:06:50;102144.59;;;8.50;38.02
70323;BME280;57735;56.264;43.898;2023-05-08T06:09:21;102140.56;;;8.71;37.46
70323;BME280;57735;56.264;43.898;2023-05-08T06:11:51;102146.91;;;8.83;34.92
70323;BME280;57735;56.264;43.898;2023-05-08T06:14:22;102144.50;;;8.93;34.33
70323;BME280;57735;56.264;43.898;2023-05-08T06:17:00;102140.63;;;9.11;34.02
70323;BME280;57735;56.264;43.898;2023-05-08T06:19:31;102145.91;;;8.98;34.51
70323;BME280;57735;56.264;43.898;2023-05-08T06:22:04;102146.34;;;9.05;33.40
70323;BME280;57735;56.264;43.898;2023-05-08T06:24:35;102146.31;;;9.19;33.25
70323;BME280;57735;56.264;43.898;2023-05-08T06:27:09;102140.72;;;9.36;32.97
70323;BME280;57735;56.264;43.898;2023-05-08T06:29:42;102134.69;;;9.47;32.85
70323;BME280;57735;56.264;43.898;2023-05-08T06:32:13;102132.84;;;9.35;31.87
70323;BME280;57735;56.264;43.898;2023-05-08T06:34:47;102132.38;;;9.28;32.27
70323;BME280;57735;56.264;43.898;2023-05-08T06:37:18;102142.88;;;9.04;32.63
70323;BME280;57735;56.264;43.898;2023-05-08T06:39:48;102145.44;;;8.92;32.46
70323;BME280;57735;56.264;43.898;2023-05-08T06:42:19;102138.09;;;8.83;32.37
70323;BME280;57735;56.264;43.898;2023-05-08T06:44:50;102153.56;;;8.76;30.64
70323;BME280;57735;56.264;43.898;2023-05-08T06:47:23;102144.47;;;8.66;31.06
70323;BME280;57735;56.264;43.898;2023-05-08T06:49:53;102139.44;;;8.61;31.61
70323;BME280;57735;56.264;43.898;2023-05-08T06:52:26;102147.50;;;8.74;31.23
70323;BME280;57735;56.264;43.898;2023-05-08T06:54:57;102143.59;;;9.06;31.25
70323;BME280;57735;56.264;43.898;2023-05-08T06:57:28;102142.63;;;9.34;30.56
70323;BME280;57735;56.264;43.898;2023-05-08T07:00:02;102140.78;;;9.62;29.92
70323;BME280;57735;56.264;43.898;2023-05-08T07:02:35;102131.22;;;9.85;29.00
70323;BME280;57735;56.264;43.898;2023-05-08T07:05:06;102133.66;;;10.13;29.12
70323;BME280;57735;56.264;43.898;2023-05-08T07:07:37;102122.25;;;10.36;28.30
70323;BME280;57735;56.264;43.898;2023-05-08T07:10:08;102122.97;;;10.51;28.04
70323;BME280;57735;56.264;43.898;2023-05-08T07:12:39;102125.88;;;10.35;28.18
70323;BME280;57735;56.264;43.898;2023-05-08T07:15:10;102131.75;;;10.15;28.33
70323;BME280;57735;56.264;43.898;2023-05-08T07:17:43;102136.53;;;9.97;29.37
70323;BME280;57735;56.264;43.898;2023-05-08T07:20:14;102132.28;;;9.82;29.03
70323;BME280;57735;56.264;43.898;2023-05-08T07:22:45;102142.19;;;9.80;28.79
70323;BME280;57735;56.264;43.898;2023-05-08T07:25:18;102135.91;;;9.81;28.54
70323;BME280;57735;56.264;43.898;2023-05-08T07:27:48;102133.88;;;10.10;28.21
70323;BME280;57735;56.264;43.898;2023-05-08T07:30:19;102133.66;;;10.26;27.74
70323;BME280;57735;56.264;43.898;2023-05-08T07:32:50;102132.31;;;10.20;27.38
70323;BME280;57735;56.264;43.898;2023-05-08T07:35:21;102138.78;;;10.16;27.43
70323;BME280;57735;56.264;43.898;2023-05-08T07:37:52;102142.94;;;9.95;27.07
70323;BME280;57735;56.264;43.898;2023-05-08T07:40:22;102138.00;;;9.76;27.73
70323;BME280;57735;56.264;43.898;2023-05-08T07:42:53;102144.94;;;9.66;28.33
70323;BME280;57735;56.264;43.898;2023-05-08T07:45:24;102136.19;;;9.76;27.99
70323;BME280;57735;56.264;43.898;2023-05-08T07:47:56;102127.84;;;10.21;28.25
70323;BME280;57735;56.264;43.898;2023-05-08T07:50:29;102139.69;;;10.66;27.73
70323;BME280;57735;56.264;43.898;2023-05-08T07:53:00;102130.78;;;11.02;27.52
70323;BME280;57735;56.264;43.898;2023-05-08T07:55:31;102123.66;;;11.02;26.29
70323;BME280;57735;56.264;43.898;2023-05-08T07:58:02;102125.16;;;11.17;26.88
70323;BME280;57735;56.264;43.898;2023-05-08T08:00:33;102132.00;;;11.22;25.85
70323;BME280;57735;56.264;43.898;2023-05-08T08:03:06;102125.50;;;11.13;25.92
70323;BME280;57735;56.264;43.898;2023-05-08T08:05:37;102135.91;;;11.05;25.67
70323;BME280;57735;56.264;43.898;2023-05-08T08:08:07;102135.97;;;11.16;25.93
70323;BME280;57735;56.264;43.898;2023-05-08T08:10:38;102130.78;;;11.26;25.25
70323;BME280;57735;56.264;43.898;2023-05-08T08:13:09;102128.53;;;11.43;25.50
70323;BME280;57735;56.264;43.898;2023-05-08T08:15:40;102125.41;;;11.49;25.46
70323;BME280;57735;56.264;43.898;2023-05-08T08:18:11;102122.81;;;11.72;25.30
70323;BME280;57735;56.264;43.898;2023-05-08T08:20:42;102113.09;;;11.71;25.34
70323;BME280;57735;56.264;43.898;2023-05-08T08:23:13;102121.69;;;11.63;25.56
70323;BME280;57735;56.264;43.898;2023-05-08T08:25:44;102116.34;;;11.63;25.79
70323;BME280;57735;56.264;43.898;2023-05-08T08:28:15;102127.25;;;11.60;24.96
70323;BME280;57735;56.264;43.898;2023-05-08T08:30:47;102114.50;;;11.52;25.25
70323;BME280;57735;56.264;43.898;2023-05-08T08:33:18;102112.06;;;11.61;25.68
70323;BME280;57735;56.264;43.898;2023-05-08T08:35:48;102121.06;;;11.60;25.36
70323;BME280;57735;56.264;43.898;2023-05-08T08:38:19;102116.94;;;11.56;25.68
70323;BME280;57735;56.264;43.898;2023-05-08T08:40:50;102115.81;;;11.58;25.79
70323;BME280;57735;56.264;43.898;2023-05-08T08:43:22;102115.19;;;11.43;26.25
70323;BME280;57735;56.264;43.898;2023-05-08T08:45:53;102109.31;;;11.27;26.43
70323;BME280;57735;56.264;43.898;2023-05-08T08:48:27;102113.34;;;11.09;26.84
70323;BME280;57735;56.264;43.898;2023-05-08T08:50:58;102107.22;;;11.19;26.92
70323;BME280;57735;56.264;43.898;2023-05-08T08:53:35;102114.59;;;11.16;26.96
70323;BME280;57735;56.264;43.898;2023-05-08T08:56:10;102110.25;;;11.26;26.33
70323;BME280;57735;56.264;43.898;2023-05-08T08:58:50;102099.69;;;11.25;26.33
70323;BME280;57735;56.264;43.898;2023-05-08T09:01:24;102105.13;;;11.47;26.67
70323;BME280;57735;56.264;43.898;2023-05-08T09:03:58;102101.63;;;11.58;26.13
70323;BME280;57735;56.264;43.898;2023-05-08T09:06:29;102091.72;;;11.71;24.52
70323;BME280;57735;56.264;43.898;2023-05-08T09:09:00;102103.72;;;11.65;24.76
70323;BME280;57735;56.264;43.898;2023-05-08T09:11:32;102097.53;;;11.65;25.04
70323;BME280;57735;56.264;43.898;2023-05-08T09:14:03;102094.97;;;11.74;25.36
70323;BME280;57735;56.264;43.898;2023-05-08T09:16:33;102090.19;;;11.44;24.66
70323;BME280;57735;56.264;43.898;2023-05-08T09:19:05;102097.00;;;11.48;24.66
70323;BME280;57735;56.264;43.898;2023-05-08T09:21:36;102093.59;;;11.46;24.61
70323;BME280;57735;56.264;43.898;2023-05-08T09:24:07;102091.66;;;11.60;24.59
70323;BME280;57735;56.264;43.898;2023-05-08T09:26:39;102099.53;;;11.96;23.73
70323;BME280;57735;56.264;43.898;2023-05-08T09:29:13;102102.47;;;12.04;23.39
70323;BME280;57735;56.264;43.898;2023-05-08T09:31:52;102084.91;;;11.67;24.42
70323;BME280;57735;56.264;43.898;2023-05-08T09:34:24;102095.44;;;11.57;24.92
70323;BME280;57735;56.264;43.898;2023-05-08T09:39:39;102087.16;;;11.84;25.31
70323;BME280;57735;56.264;43.898;2023-05-08T09:42:13;102089.31;;;11.79;24.59
70323;BME280;57735;56.264;43.898;2023-05-08T09:44:44;102094.44;;;11.82;24.69
70323;BME280;57735;56.264;43.898;2023-05-08T09:47:17;102092.94;;;11.78;24.33
70323;BME280;57735;56.264;43.898;2023-05-08T09:50:07;102102.13;;;11.74;25.38
70323;BME280;57735;56.264;43.898;2023-05-08T09:52:46;102096.16;;;11.59;25.58
70323;BME280;57735;56.264;43.898;2023-05-08T09:55:21;102104.38;;;11.34;25.23
70323;BME280;57735;56.264;43.898;2023-05-08T09:57:58;102095.91;;;11.51;25.37
70323;BME280;57735;56.264;43.898;2023-05-08T10:00:29;102093.56;;;11.81;25.16
70323;BME280;57735;56.264;43.898;2023-05-08T10:03:08;102101.34;;;12.07;24.40
70323;BME280;57735;56.264;43.898;2023-05-08T10:05:38;102090.19;;;12.35;24.03
70323;BME280;57735;56.264;43.898;2023-05-08T10:08:23;102090.06;;;12.37;24.03
70323;BME280;57735;56.264;43.898;2023-05-08T10:11:12;102095.19;;;12.17;24.50
70323;BME280;57735;56.264;43.898;2023-05-08T10:13:46;102083.00;;;12.36;24.88
70323;BME280;57735;56.264;43.898;2023-05-08T10:16:17;102076.25;;;12.64;23.97
70323;BME280;57735;56.264;43.898;2023-05-08T10:18:49;102096.00;;;12.94;24.20
70323;BME280;57735;56.264;43.898;2023-05-08T10:21:20;102085.09;;;12.86;24.70
70323;BME280;57735;56.264;43.898;2023-05-08T10:23:55;102085.28;;;12.94;24.21
70323;BME280;57735;56.264;43.898;2023-05-08T10:26:29;102082.78;;;12.39;24.33
70323;BME280;57735;56.264;43.898;2023-05-08T10:29:06;102078.16;;;12.07;24.54
70323;BME280;57735;56.264;43.898;2023-05-08T10:31:39;102077.81;;;12.23;24.46
70323;BME280;57735;56.264;43.898;2023-05-08T10:34:17;102068.34;;;12.73;24.60
70323;BME280;57735;56.264;43.898;2023-05-08T10:36:49;102062.50;;;12.68;24.71
70323;BME280;57735;56.264;43.898;2023-05-08T10:39:24;102065.56;;;12.64;25.42
70323;BME280;57735;56.264;43.898;2023-05-08T10:41:57;102074.47;;;12.42;24.92
70323;BME280;57735;56.264;43.898;2023-05-08T10:44:29;102075.13;;;12.12;25.30
70323;BME280;57735;56.264;43.898;2023-05-08T10:49:59;102080.94;;;11.83;26.48
70323;BME280;57735;56.264;43.898;2023-05-08T10:52:51;102084.34;;;11.85;27.28
70323;BME280;57735;56.264;43.898;2023-05-08T10:55:28;102075.94;;;11.90;26.49
70323;BME280;57735;56.264;43.898;2023-05-08T10:58:13;102082.41;;;11.99;26.60
70323;BME280;57735;56.264;43.898;2023-05-08T11:03:25;102079.25;;;12.38;27.80
70323;BME280;57735;56.264;43.898;2023-05-08T11:05:57;102080.16;;;12.59;26.65
70323;BME280;57735;56.264;43.898;2023-05-08T11:08:30;102075.97;;;12.12;26.55
70323;BME280;57735;56.264;43.898;2023-05-08T11:11:04;102082.31;;;11.89;26.84
70323;BME280;57735;56.264;43.898;2023-05-08T11:13:47;102075.41;;;11.74;27.42
70323;BME280;57735;56.264;43.898;2023-05-08T11:19:26;102081.06;;;11.36;27.53
70323;BME280;57735;56.264;43.898;2023-05-08T11:38:31;102057.06;;;12.58;26.67
70323;BME280;57735;56.264;43.898;2023-05-08T11:41:07;102059.41;;;12.41;25.66
70323;BME280;57735;56.264;43.898;2023-05-08T11:46:16;102061.38;;;12.16;26.13
70323;BME280;57735;56.264;43.898;2023-05-08T11:48:47;102062.84;;;12.09;27.46
70323;BME280;57735;56.264;43.898;2023-05-08T11:51:18;102055.81;;;11.97;27.71
70323;BME280;57735;56.264;43.898;2023-05-08T11:53:51;102060.06;;;11.88;27.95
70323;BME280;57735;56.264;43.898;2023-05-08T11:56:22;102079.00;;;11.85;27.86
70323;BME280;57735;56.264;43.898;2023-05-08T11:59:04;102062.75;;;11.88;28.08
70323;BME280;57735;56.264;43.898;2023-05-08T12:01:35;102061.84;;;12.44;28.53
70323;BME280;57735;56.264;43.898;2023-05-08T12:04:10;102060.50;;;12.27;28.00
70323;BME280;57735;56.264;43.898;2023-05-08T12:06:42;102068.53;;;12.27;28.22
70323;BME280;57735;56.264;43.898;2023-05-08T12:09:16;102055.78;;;12.31;28.33
70323;BME280;57735;56.264;43.898;2023-05-08T12:11:55;102063.13;;;12.61;27.96
70323;BME280;57735;56.264;43.898;2023-05-08T12:14:26;102067.22;;;13.19;27.50
70323;BME280;57735;56.264;43.898;2023-05-08T12:16:57;102061.06;;;12.96;27.15
70323;BME280;57735;56.264;43.898;2023-05-08T12:19:28;102055.53;;;12.77;27.95
70323;BME280;57735;56.264;43.898;2023-05-08T12:21:59;102057.84;;;12.38;27.81
70323;BME280;57735;56.264;43.898;2023-05-08T12:24:30;102061.13;;;12.08;28.35
70323;BME280;57735;56.264;43.898;2023-05-08T12:27:00;102058.09;;;11.79;28.19
70323;BME280;57735;56.264;43.898;2023-05-08T12:29:35;102064.59;;;11.53;29.04
70323;BME280;57735;56.264;43.898;2023-05-08T12:32:07;102055.47;;;11.44;29.14
70323;BME280;57735;56.264;43.898;2023-05-08T12:34:37;102055.78;;;12.74;27.49
70323;BME280;57735;56.264;43.898;2023-05-08T12:37:10;102041.59;;;14.08;26.51
70323;BME280;57735;56.264;43.898;2023-05-08T12:39:43;102040.50;;;13.80;26.83
70323;BME280;57735;56.264;43.898;2023-05-08T12:42:14;102044.16;;;13.27;26.85
70323;BME280;57735;56.264;43.898;2023-05-08T12:44:52;102050.38;;;12.96;27.27
70323;BME280;57735;56.264;43.898;2023-05-08T12:47:24;102043.06;;;12.66;27.58
70323;BME280;57735;56.264;43.898;2023-05-08T12:49:57;102045.94;;;12.31;28.17
70323;BME280;57735;56.264;43.898;2023-05-08T12:52:28;102042.94;;;12.02;28.88
70323;BME280;57735;56.264;43.898;2023-05-08T12:55:01;102031.03;;;11.84;29.29
70323;BME280;57735;56.264;43.898;2023-05-08T12:57:35;102041.19;;;11.68;29.77
70323;BME280;57735;56.264;43.898;2023-05-08T13:00:06;102038.25;;;11.60;29.77
70323;BME280;57735;56.264;43.898;2023-05-08T13:02:37;102038.88;;;11.63;30.01
70323;BME280;57735;56.264;43.898;2023-05-08T13:05:10;102048.00;;;11.72;30.05
70323;BME280;57735;56.264;43.898;2023-05-08T13:07:41;102040.00;;;11.94;29.42
70323;BME280;57735;56.264;43.898;2023-05-08T13:10:12;102040.41;;;14.21;26.47
70323;BME280;57735;56.264;43.898;2023-05-08T13:12:45;102038.84;;;16.20;24.64
70323;BME280;57735;56.264;43.898;2023-05-08T13:15:16;102038.28;;;15.04;25.58
70323;BME280;57735;56.264;43.898;2023-05-08T13:17:50;102033.91;;;13.84;27.72
70323;BME280;57735;56.264;43.898;2023-05-08T13:20:23;102049.31;;;13.19;28.28
70323;BME280;57735;56.264;43.898;2023-05-08T13:22:56;102048.34;;;12.56;28.50
70323;BME280;57735;56.264;43.898;2023-05-08T13:25:27;102053.38;;;12.05;29.24
70323;BME280;57735;56.264;43.898;2023-05-08T13:27:59;102051.19;;;11.77;29.48
70323;BME280;57735;56.264;43.898;2023-05-08T13:30:30;102053.06;;;11.64;30.16
70323;BME280;57735;56.264;43.898;2023-05-08T13:33:01;102047.72;;;11.64;30.16
70323;BME280;57735;56.264;43.898;2023-05-08T13:35:32;102050.41;;;11.75;29.91
70323;BME280;57735;56.264;43.898;2023-05-08T13:38:05;102050.34;;;11.99;29.78
70323;BME280;57735;56.264;43.898;2023-05-08T13:40:36;102049.00;;;12.15;29.89
70323;BME280;57735;56.264;43.898;2023-05-08T13:43:07;102051.06;;;12.12;29.34
70323;BME280;57735;56.264;43.898;2023-05-08T13:45:38;102047.44;;;12.02;29.58
70323;BME280;57735;56.264;43.898;2023-05-08T13:48:14;102046.91;;;12.08;29.67
70323;BME280;57735;56.264;43.898;2023-05-08T13:50:45;102045.09;;;12.19;29.32
70323;BME280;57735;56.264;43.898;2023-05-08T13:53:16;102035.72;;;15.31;25.93
70323;BME280;57735;56.264;43.898;2023-05-08T13:55:46;102034.16;;;15.57;25.21
70323;BME280;57735;56.264;43.898;2023-05-08T13:58:17;102038.84;;;14.97;25.63
70323;BME280;57735;56.264;43.898;2023-05-08T14:00:51;102039.94;;;13.76;26.64
70323;BME280;57735;56.264;43.898;2023-05-08T14:03:22;102039.16;;;13.02;28.32
70323;BME280;57735;56.264;43.898;2023-05-08T14:05:53;102049.06;;;12.47;28.96
70323;BME280;57735;56.264;43.898;2023-05-08T14:08:24;102048.91;;;12.06;29.45
70323;BME280;57735;56.264;43.898;2023-05-08T14:10:55;102055.06;;;11.84;30.07